Time;durP1;ratioP1;P1;durP2;ratioP2;P2;SDS_P1;SDS_P2;PMS_P1;PMS_P2;Temp;Humidity;BMP_temperature;BMP_pressure;BME280_temperature;BME280_humidity;BME280_pressure;Samples;Min_cycle;Max_cycle;Signal;HPM_P1;HPM_P2
2023/10/24 00:01:13;;;;;;;7.03;5.00;;;12.30;99.90;;;;;;5088009;28;20237;-66
2023/10/24 00:03:40;;;;;;;5.70;4.83;;;12.30;99.90;;;;;;5087503;28;20302;-66
2023/10/24 00:06:07;;;;;;;5.40;4.90;;;12.30;99.90;;;;;;5087608;28;20206;-66
2023/10/24 00:08:34;;;;;;;5.50;5.00;;;12.20;99.90;;;;;;5097281;28;20325;-66
2023/10/24 00:11:01;;;;;;;5.37;4.87;;;12.20;99.90;;;;;;5087527;28;20602;-66
2023/10/24 00:13:28;;;;;;;5.67;5.17;;;12.20;99.90;;;;;;5087596;28;20669;-66
2023/10/24 00:15:55;;;;;;;5.33;4.40;;;12.20;99.90;;;;;;5087601;28;20221;-66
2023/10/24 00:18:23;;;;;;;5.13;4.63;;;12.20;99.90;;;;;;5101151;28;20285;-66
2023/10/24 00:20:50;;;;;;;7.00;5.07;;;12.20;99.90;;;;;;5107745;28;20897;-67
2023/10/24 00:23:17;;;;;;;4.93;4.63;;;12.20;99.90;;;;;;5107823;28;20210;-66
2023/10/24 00:25:44;;;;;;;5.73;5.30;;;12.20;99.90;;;;;;5087798;28;20683;-67
2023/10/24 00:28:11;;;;;;;5.67;5.13;;;12.20;99.90;;;;;;5087521;28;20318;-66
2023/10/24 00:30:39;;;;;;;5.80;5.30;;;12.20;99.90;;;;;;5087658;28;20467;-66
2023/10/24 00:33:06;;;;;;;5.60;5.10;;;12.20;99.90;;;;;;5087121;28;20209;-66
2023/10/24 00:35:34;;;;;;;7.50;5.53;;;12.20;99.90;;;;;;5086728;28;20294;-67
2023/10/24 00:38:02;;;;;;;7.83;5.20;;;12.10;99.90;;;;;;5087152;28;20287;-66
2023/10/24 00:40:29;;;;;;;9.23;5.10;;;12.10;99.90;;;;;;5087069;28;20260;-66
2023/10/24 00:43:02;;;;;;;7.80;5.43;;;12.10;99.90;;;;;;5089077;28;20277;-66
2023/10/24 00:45:29;;;;;;;5.47;4.97;;;12.10;99.90;;;;;;5093901;28;20572;-67
2023/10/24 00:47:56;;;;;;;5.40;4.90;;;12.10;99.90;;;;;;5101966;28;20198;-67
2023/10/24 00:50:23;;;;;;;5.70;5.20;;;12.10;99.90;;;;;;5106866;28;20210;-66
2023/10/24 00:52:51;;;;;;;5.73;5.17;;;12.10;99.90;;;;;;5103626;28;20266;-67
2023/10/24 00:55:18;;;;;;;6.37;5.70;;;12.00;99.90;;;;;;5086618;28;20321;-66
2023/10/24 00:57:45;;;;;;;5.27;4.97;;;12.00;99.90;;;;;;5086625;28;20664;-66
2023/10/24 01:00:14;;;;;;;7.60;5.33;;;12.00;99.90;;;;;;5086796;28;20298;-66
2023/10/24 01:02:41;;;;;;;6.47;5.73;;;12.00;99.90;;;;;;5086530;28;20226;-66
2023/10/24 01:05:09;;;;;;;7.27;5.33;;;12.00;99.90;;;;;;5101404;28;20760;-66
2023/10/24 01:07:36;;;;;;;9.07;5.30;;;12.00;99.90;;;;;;5106656;28;20301;-67
2023/10/24 01:10:05;;;;;;;6.30;5.47;;;12.00;99.90;;;;;;5106228;28;21022;-67
2023/10/24 01:12:32;;;;;;;8.07;5.57;;;12.00;99.90;;;;;;5106697;28;20210;-66
2023/10/24 01:14:59;;;;;;;6.57;5.53;;;12.00;99.90;;;;;;5106618;28;20209;-67
2023/10/24 01:17:26;;;;;;;5.50;5.00;;;12.00;99.90;;;;;;5106334;28;20198;-66
2023/10/24 01:19:53;;;;;;;15.70;5.73;;;12.00;99.90;;;;;;5094777;28;20207;-66
2023/10/24 01:22:21;;;;;;;8.03;5.30;;;12.00;99.90;;;;;;5085340;28;20809;-66
2023/10/24 01:24:50;;;;;;;6.43;5.43;;;12.00;99.90;;;;;;5085466;28;20210;-67
2023/10/24 01:27:19;;;;;;;6.63;5.50;;;12.10;99.90;;;;;;5085278;28;21084;-66
2023/10/24 01:29:46;;;;;;;6.27;5.67;;;12.10;99.90;;;;;;5085777;28;20294;-66
2023/10/24 01:32:13;;;;;;;9.03;6.33;;;12.00;99.90;;;;;;5086211;28;20206;-66
2023/10/24 01:34:40;;;;;;;7.60;5.67;;;12.10;99.90;;;;;;5085485;28;20345;-66
2023/10/24 01:37:07;;;;;;;5.53;5.03;;;12.10;99.90;;;;;;5085174;28;20754;-66
2023/10/24 01:39:35;;;;;;;5.80;5.30;;;12.10;99.90;;;;;;5085436;28;20202;-66
2023/10/24 01:42:02;;;;;;;5.80;5.30;;;12.20;99.90;;;;;;5085437;28;20357;-66
2023/10/24 01:44:29;;;;;;;7.93;5.30;;;12.10;99.90;;;;;;5090789;28;20736;-66
2023/10/24 01:46:56;;;;;;;10.83;5.73;;;12.20;99.90;;;;;;5104047;28;20660;-66
2023/10/24 01:49:23;;;;;;;6.03;5.10;;;12.20;99.90;;;;;;5088688;27;20732;-66
2023/10/24 01:51:50;;;;;;;7.40;5.90;;;12.20;99.90;;;;;;5089263;28;20194;-66
2023/10/24 01:54:16;;;;;;;6.27;5.10;;;12.30;99.90;;;;;;5085710;28;20573;-66
2023/10/24 01:56:45;;;;;;;8.37;5.27;;;12.30;99.90;;;;;;5100700;28;20212;-66
2023/10/24 01:59:11;;;;;;;6.47;5.40;;;12.30;99.90;;;;;;5105528;28;20718;-67
2023/10/24 02:01:39;;;;;;;7.40;5.83;;;12.30;99.90;;;;;;5105064;28;20241;-66
2023/10/24 02:04:06;;;;;;;6.70;5.60;;;12.30;99.90;;;;;;5105925;28;20609;-66
2023/10/24 02:06:33;;;;;;;7.60;5.70;;;12.30;99.90;;;;;;5105720;28;20284;-66
2023/10/24 02:09:00;;;;;;;5.40;4.73;;;12.30;99.90;;;;;;5105804;28;20289;-66
2023/10/24 02:11:27;;;;;;;7.63;5.67;;;12.30;99.90;;;;;;5105637;28;20209;-66
2023/10/24 02:13:55;;;;;;;8.03;5.40;;;12.20;99.90;;;;;;5095820;28;20207;-66
2023/10/24 02:16:22;;;;;;;8.23;5.67;;;12.30;99.90;;;;;;5098716;28;20321;-66
2023/10/24 02:18:49;;;;;;;7.10;5.37;;;12.30;99.90;;;;;;5105435;28;20263;-66
2023/10/24 02:21:16;;;;;;;8.70;5.40;;;12.30;99.90;;;;;;5105202;28;20688;-66
2023/10/24 02:23:43;;;;;;;6.57;5.93;;;12.30;99.90;;;;;;5105560;28;20259;-66
2023/10/24 02:26:14;;;;;;;5.53;5.03;;;12.30;99.90;;;;;;5099705;28;20241;-65
2023/10/24 02:28:41;;;;;;;7.90;5.40;;;12.30;99.90;;;;;;5085505;28;20236;-66
2023/10/24 02:31:10;;;;;;;6.40;5.53;;;12.30;99.90;;;;;;5083337;28;20213;-65
2023/10/24 02:33:37;;;;;;;6.83;5.30;;;12.30;99.90;;;;;;5083494;28;20202;-65
2023/10/24 02:36:08;;;;;;;5.90;5.40;;;12.30;99.90;;;;;;5096101;28;20266;-65
2023/10/24 02:38:35;;;;;;;7.40;5.40;;;12.30;99.90;;;;;;5103830;28;20695;-65
2023/10/24 02:41:02;;;;;;;6.43;5.77;;;12.30;99.90;;;;;;5103868;28;20275;-65
2023/10/24 02:43:29;;;;;;;8.07;5.93;;;12.30;99.90;;;;;;5098745;28;20210;-65
2023/10/24 02:45:56;;;;;;;6.33;5.80;;;12.30;99.90;;;;;;5103269;28;20255;-65
2023/10/24 02:48:25;;;;;;;6.00;4.67;;;12.30;99.90;;;;;;5089583;28;20203;-66
2023/10/24 02:50:53;;;;;;;7.57;5.47;;;12.30;99.90;;;;;;5083190;28;20289;-66
2023/10/24 02:53:20;;;;;;;8.67;6.00;;;12.30;99.90;;;;;;5083557;28;20431;-65
2023/10/24 02:55:48;;;;;;;7.93;5.63;;;12.20;99.90;;;;;;5083277;28;20515;-66
2023/10/24 02:58:15;;;;;;;10.70;6.27;;;12.30;99.90;;;;;;5123277;28;20198;-66
2023/10/24 03:00:42;;;;;;;5.93;5.17;;;12.30;99.90;;;;;;5124074;27;20324;-65
2023/10/24 03:03:10;;;;;;;7.53;5.53;;;12.30;99.90;;;;;;5112269;27;20249;-65
2023/10/24 03:05:38;;;;;;;8.93;5.67;;;12.20;99.90;;;;;;5099510;28;20202;-66
2023/10/24 03:08:06;;;;;;;6.20;5.70;;;12.20;99.90;;;;;;5101773;28;20301;-66
2023/10/24 03:10:39;;;;;;;6.83;5.97;;;12.30;99.90;;;;;;5104356;28;20749;-66
2023/10/24 03:13:06;;;;;;;6.47;5.70;;;12.20;99.90;;;;;;5101078;28;20636;-66
2023/10/24 03:15:34;;;;;;;7.33;5.33;;;12.20;99.90;;;;;;5084024;28;20211;-66
2023/10/24 03:18:01;;;;;;;7.73;5.80;;;12.20;99.90;;;;;;5084030;28;20210;-65
2023/10/24 03:20:28;;;;;;;6.17;5.57;;;12.20;99.90;;;;;;5084044;28;20298;-66
2023/10/24 03:22:56;;;;;;;8.33;6.13;;;12.20;99.90;;;;;;5084335;28;20233;-66
2023/10/24 03:25:24;;;;;;;8.77;5.97;;;12.20;99.90;;;;;;5084465;28;20290;-66
2023/10/24 03:27:53;;;;;;;8.67;5.70;;;12.20;99.90;;;;;;5084486;28;20227;-66
2023/10/24 03:30:20;;;;;;;9.10;5.30;;;12.20;99.90;;;;;;5084485;28;20297;-66
2023/10/24 03:32:47;;;;;;;6.63;5.43;;;12.20;99.90;;;;;;5084337;28;20238;-66
2023/10/24 03:35:15;;;;;;;6.87;6.10;;;12.20;99.90;;;;;;5099495;28;20213;-66
2023/10/24 03:37:42;;;;;;;7.57;6.07;;;12.20;99.90;;;;;;5104361;28;20244;-65
2023/10/24 03:40:11;;;;;;;9.73;6.10;;;12.20;99.90;;;;;;5104242;28;20851;-66
2023/10/24 03:42:38;;;;;;;9.67;6.10;;;12.20;99.90;;;;;;5092419;28;20266;-66
2023/10/24 03:45:06;;;;;;;7.00;5.93;;;12.20;99.90;;;;;;5084153;28;21105;-66
2023/10/24 03:47:33;;;;;;;8.60;5.80;;;12.20;99.90;;;;;;5086159;28;21014;-66
2023/10/24 03:49:59;;;;;;;6.73;6.03;;;12.20;99.90;;;;;;5087833;28;20221;-66
2023/10/24 03:52:27;;;;;;;8.17;6.27;;;12.20;99.90;;;;;;5090238;28;20206;-66
2023/10/24 03:54:54;;;;;;;7.67;5.80;;;12.20;99.90;;;;;;5107920;28;20206;-66
2023/10/24 03:57:22;;;;;;;6.47;5.77;;;12.20;99.90;;;;;;5108077;27;20214;-66
2023/10/24 03:59:49;;;;;;;7.67;6.33;;;12.20;99.90;;;;;;5108028;28;20266;-65
2023/10/24 04:02:16;;;;;;;7.83;6.33;;;12.20;99.90;;;;;;5107863;28;20230;-66
2023/10/24 04:04:42;;;;;;;7.20;6.40;;;12.20;99.90;;;;;;5107813;28;20233;-66
2023/10/24 04:07:09;;;;;;;9.87;6.90;;;12.20;99.90;;;;;;5107685;28;20333;-66
2023/10/24 04:09:39;;;;;;;8.40;6.40;;;12.20;99.90;;;;;;5107558;28;20691;-66
2023/10/24 04:12:07;;;;;;;9.97;6.50;;;12.20;99.90;;;;;;5107744;27;20214;-66
2023/10/24 04:14:35;;;;;;;10.07;6.57;;;12.20;99.90;;;;;;5092095;28;20297;-66
2023/10/24 04:17:02;;;;;;;9.23;6.30;;;12.20;99.90;;;;;;5087233;28;20252;-66
2023/10/24 04:19:29;;;;;;;9.13;7.23;;;12.20;99.90;;;;;;5087116;28;20306;-66
2023/10/24 04:21:56;;;;;;;10.33;7.30;;;12.10;99.90;;;;;;5087747;28;20238;-66
2023/10/24 04:24:23;;;;;;;8.73;7.20;;;12.10;99.90;;;;;;5087163;28;20249;-66
2023/10/24 04:26:49;;;;;;;8.37;6.53;;;12.10;99.90;;;;;;5086721;28;20724;-66
2023/10/24 04:29:16;;;;;;;11.20;7.37;;;12.10;99.90;;;;;;5086636;28;20207;-66
2023/10/24 04:31:45;;;;;;;7.33;6.63;;;12.00;99.90;;;;;;5103958;28;20913;-66
2023/10/24 04:34:11;;;;;;;10.20;6.97;;;11.90;99.90;;;;;;5107236;28;20289;-66
2023/10/24 04:36:39;;;;;;;9.13;6.70;;;12.00;99.90;;;;;;5100478;28;20243;-66
2023/10/24 04:39:23;;;;;;;10.97;6.87;;;12.00;99.90;;;;;;5075390;28;20286;-67
2023/10/24 04:41:51;;;;;;;6.83;6.13;;;11.90;99.90;;;;;;5107482;28;20210;-66
2023/10/24 04:44:18;;;;;;;9.50;6.47;;;11.90;99.90;;;;;;5106830;28;20210;-66
2023/10/24 04:46:46;;;;;;;6.90;6.27;;;11.90;99.90;;;;;;5106646;28;20213;-66
2023/10/24 04:49:13;;;;;;;10.10;6.33;;;12.00;99.90;;;;;;5106732;28;20213;-66
2023/10/24 04:51:40;;;;;;;9.67;7.00;;;12.00;99.90;;;;;;5107331;28;20228;-66
2023/10/24 04:54:08;;;;;;;10.33;6.90;;;12.00;99.90;;;;;;5106918;28;20289;-66
2023/10/24 04:56:35;;;;;;;7.70;6.60;;;12.00;99.90;;;;;;5106942;28;20251;-66
2023/10/24 04:59:03;;;;;;;9.30;6.67;;;12.00;99.90;;;;;;5106535;27;20301;-66
2023/10/24 05:01:37;;;;;;;9.33;6.87;;;12.00;99.90;;;;;;5106785;28;20287;-66
2023/10/24 05:04:05;;;;;;;8.70;6.80;;;12.00;99.90;;;;;;5106528;28;20225;-66
2023/10/24 05:06:32;;;;;;;10.53;7.03;;;12.00;99.90;;;;;;5117803;27;20755;-66
2023/10/24 05:09:00;;;;;;;7.80;6.47;;;12.00;99.90;;;;;;5126763;27;20292;-66
2023/10/24 05:11:27;;;;;;;9.93;6.47;;;12.00;99.90;;;;;;5127059;27;20413;-66
2023/10/24 05:13:54;;;;;;;12.30;7.50;;;12.00;99.90;;;;;;5117046;27;20210;-66
2023/10/24 05:16:21;;;;;;;7.67;6.97;;;12.00;99.90;;;;;;5106346;28;20364;-67
2023/10/24 05:18:47;;;;;;;9.60;7.10;;;12.00;99.90;;;;;;5106050;28;20683;-66
2023/10/24 05:21:16;;;;;;;8.30;6.70;;;11.90;99.90;;;;;;5106211;28;20210;-66
2023/10/24 05:23:42;;;;;;;8.37;7.20;;;11.90;99.90;;;;;;5106272;28;20233;-66
2023/10/24 05:26:09;;;;;;;9.53;6.63;;;11.90;99.90;;;;;;5106220;28;20216;-66
2023/10/24 05:28:36;;;;;;;9.13;6.50;;;11.90;99.90;;;;;;5106221;28;20285;-66
2023/10/24 05:31:07;;;;;;;7.57;6.77;;;11.90;99.90;;;;;;5106301;28;20216;-66
2023/10/24 05:33:34;;;;;;;7.07;6.40;;;11.90;99.90;;;;;;5106360;28;20216;-66
2023/10/24 05:36:01;;;;;;;8.00;6.67;;;11.90;99.90;;;;;;5086846;28;20231;-66
2023/10/24 05:38:29;;;;;;;7.87;7.00;;;11.90;99.90;;;;;;5101891;28;20643;-66
2023/10/24 05:40:56;;;;;;;9.73;6.93;;;11.90;99.90;;;;;;5106363;27;21008;-66
2023/10/24 05:43:23;;;;;;;8.93;7.07;;;11.90;99.90;;;;;;5105503;28;20242;-66
2023/10/24 05:45:50;;;;;;;7.90;6.47;;;12.00;99.90;;;;;;5105874;28;20206;-66
2023/10/24 05:48:17;;;;;;;9.03;6.57;;;12.00;99.90;;;;;;5105647;28;20212;-66
2023/10/24 05:50:45;;;;;;;6.83;6.07;;;12.00;99.90;;;;;;5106146;28;20228;-66
2023/10/24 05:53:12;;;;;;;8.17;6.50;;;12.00;99.90;;;;;;5106274;28;20234;-66
2023/10/24 05:55:41;;;;;;;8.57;6.03;;;12.00;99.90;;;;;;5074210;28;20375;-66
2023/10/24 05:58:08;;;;;;;9.97;5.93;;;12.00;99.90;;;;;;5105828;28;20202;-66
2023/10/24 06:00:35;;;;;;;7.07;5.87;;;12.00;99.90;;;;;;5105604;28;20208;-66
2023/10/24 06:03:02;;;;;;;9.73;6.53;;;12.00;99.90;;;;;;5105276;28;20229;-66
2023/10/24 06:05:29;;;;;;;9.50;6.20;;;11.90;99.90;;;;;;5105332;28;20312;-66
2023/10/24 06:07:55;;;;;;;9.27;6.10;;;12.00;99.90;;;;;;5105581;28;20213;-66
2023/10/24 06:10:22;;;;;;;7.10;6.33;;;12.00;99.90;;;;;;5105085;28;20229;-66
2023/10/24 06:12:50;;;;;;;8.10;7.17;;;12.00;99.90;;;;;;5105966;28;20292;-66
2023/10/24 06:15:17;;;;;;;6.93;6.23;;;11.90;99.90;;;;;;5105049;28;20788;-66
2023/10/24 06:17:44;;;;;;;8.87;6.33;;;11.90;99.90;;;;;;5104696;28;20739;-66
2023/10/24 06:20:12;;;;;;;7.60;6.83;;;12.00;99.90;;;;;;5105093;28;20697;-66
2023/10/24 06:22:40;;;;;;;9.60;6.60;;;12.00;99.90;;;;;;5105264;28;20332;-66
2023/10/24 06:25:07;;;;;;;9.83;6.53;;;12.00;99.90;;;;;;5105356;28;20205;-66
2023/10/24 06:27:34;;;;;;;9.33;6.50;;;12.00;99.90;;;;;;5105480;28;20309;-66
2023/10/24 06:30:02;;;;;;;9.50;6.63;;;12.00;99.90;;;;;;5090875;28;20253;-66
2023/10/24 06:32:29;;;;;;;7.23;6.03;;;12.00;99.90;;;;;;5084359;28;20336;-66
2023/10/24 06:34:56;;;;;;;8.67;6.57;;;12.00;99.90;;;;;;5102522;28;20210;-66
2023/10/24 06:37:23;;;;;;;8.53;6.43;;;12.00;99.90;;;;;;5105001;28;20236;-66
2023/10/24 06:39:50;;;;;;;9.17;6.90;;;12.00;99.90;;;;;;5105147;28;20301;-66
2023/10/24 06:42:16;;;;;;;8.17;6.93;;;12.00;99.90;;;;;;5093862;28;20202;-66
2023/10/24 06:44:43;;;;;;;9.53;6.70;;;12.10;99.90;;;;;;5101777;28;20209;-66
2023/10/24 06:47:11;;;;;;;7.77;7.00;;;12.10;99.90;;;;;;5105049;28;20210;-66
2023/10/24 06:49:38;;;;;;;7.90;7.17;;;12.10;99.90;;;;;;5104806;28;20668;-66
2023/10/24 06:52:06;;;;;;;9.77;6.60;;;12.10;99.90;;;;;;5104887;28;20672;-66
2023/10/24 06:54:33;;;;;;;10.30;6.57;;;12.10;99.90;;;;;;5104654;28;20210;-66
2023/10/24 06:57:00;;;;;;;8.53;6.80;;;12.10;99.90;;;;;;5105000;28;20202;-66
2023/10/24 06:59:27;;;;;;;8.00;6.40;;;12.10;99.90;;;;;;5104995;28;20245;-66
2023/10/24 07:01:53;;;;;;;9.20;6.77;;;12.10;99.90;;;;;;5105109;28;20288;-66
2023/10/24 07:04:22;;;;;;;8.50;7.13;;;12.10;99.90;;;;;;5104712;28;20332;-66
2023/10/24 07:06:48;;;;;;;9.87;6.80;;;12.10;99.90;;;;;;5104918;28;20201;-66
2023/10/24 07:09:15;;;;;;;9.00;7.27;;;12.10;99.90;;;;;;5104650;28;20234;-67
2023/10/24 07:11:42;;;;;;;9.67;7.40;;;12.10;99.90;;;;;;5104779;28;20313;-66
2023/10/24 07:14:11;;;;;;;8.13;7.03;;;12.20;99.90;;;;;;5104627;28;20209;-66
2023/10/24 07:16:38;;;;;;;11.23;7.63;;;12.20;99.90;;;;;;5104736;28;20212;-66
2023/10/24 07:19:05;;;;;;;7.63;6.37;;;12.20;99.90;;;;;;5099054;28;20210;-66
2023/10/24 07:21:33;;;;;;;7.40;6.60;;;12.20;99.90;;;;;;5085414;28;20211;-66
2023/10/24 07:24:00;;;;;;;7.03;6.43;;;12.20;99.90;;;;;;5088278;28;20244;-66
2023/10/24 07:26:27;;;;;;;7.87;6.90;;;12.20;99.90;;;;;;5089427;28;20237;-66
2023/10/24 07:28:54;;;;;;;10.83;6.80;;;12.20;99.90;;;;;;5108892;28;20300;-66
2023/10/24 07:31:21;;;;;;;7.00;6.30;;;12.20;99.90;;;;;;5108761;27;20275;-66
2023/10/24 07:33:48;;;;;;;9.30;6.77;;;12.20;99.90;;;;;;5108706;28;20292;-66
2023/10/24 07:36:16;;;;;;;7.03;6.43;;;12.30;99.90;;;;;;5108102;28;20957;-66
2023/10/24 07:38:45;;;;;;;7.10;6.33;;;12.30;99.90;;;;;;5108640;28;20521;-66
2023/10/24 07:41:12;;;;;;;8.50;7.20;;;12.30;99.90;;;;;;5108494;28;20305;-66
2023/10/24 07:43:38;;;;;;;11.17;7.20;;;12.30;99.90;;;;;;5100112;27;20348;-66
2023/10/24 07:46:05;;;;;;;9.20;7.27;;;12.30;99.90;;;;;;5087874;28;20634;-66
2023/10/24 07:48:32;;;;;;;9.03;6.97;;;12.30;99.90;;;;;;5087756;28;20213;-66
2023/10/24 07:50:59;;;;;;;11.63;6.83;;;12.30;99.90;;;;;;5088052;28;20318;-66
2023/10/24 07:53:27;;;;;;;8.80;6.93;;;12.30;99.90;;;;;;5087895;28;20404;-66
2023/10/24 07:55:55;;;;;;;7.07;6.37;;;12.30;99.90;;;;;;5087654;28;20839;-66
2023/10/24 07:58:22;;;;;;;8.77;7.20;;;12.30;99.90;;;;;;5088061;28;20782;-66
2023/10/24 08:00:49;;;;;;;9.57;6.70;;;12.40;99.90;;;;;;5087940;28;20286;-66
2023/10/24 08:03:17;;;;;;;7.57;6.60;;;12.40;99.90;;;;;;5087298;28;20310;-66
2023/10/24 08:05:44;;;;;;;7.93;6.77;;;12.40;99.90;;;;;;5087985;28;20202;-66
2023/10/24 08:08:10;;;;;;;8.13;7.20;;;12.40;99.90;;;;;;5087302;28;20267;-66
2023/10/24 08:10:37;;;;;;;7.40;6.70;;;12.40;99.90;;;;;;5087054;28;20737;-66
2023/10/24 08:13:06;;;;;;;9.27;6.83;;;12.40;99.90;;;;;;5090649;28;20324;-66
2023/10/24 08:15:33;;;;;;;7.57;6.80;;;12.40;99.90;;;;;;5100115;28;20302;-66
2023/10/24 08:18:00;;;;;;;8.57;6.20;;;12.40;99.90;;;;;;5086867;28;20297;-66
2023/10/24 08:20:27;;;;;;;7.53;6.90;;;12.40;99.90;;;;;;5087188;28;20214;-66
2023/10/24 08:22:54;;;;;;;8.47;7.40;;;12.40;99.90;;;;;;5086867;28;20232;-66
2023/10/24 08:25:21;;;;;;;7.77;7.07;;;12.40;99.90;;;;;;5087317;28;20309;-66
2023/10/24 08:27:48;;;;;;;11.73;7.33;;;12.50;99.90;;;;;;5086926;28;20889;-66
2023/10/24 08:30:16;;;;;;;7.47;6.77;;;12.50;99.90;;;;;;5087278;28;20313;-66
2023/10/24 08:32:43;;;;;;;18.57;15.23;;;12.50;99.90;;;;;;5086530;28;20675;-66
2023/10/24 08:35:10;;;;;;;9.70;7.83;;;12.50;99.90;;;;;;5101658;28;20672;-66
2023/10/24 08:37:37;;;;;;;10.80;7.60;;;12.50;99.90;;;;;;5106979;28;20238;-66
2023/10/24 08:40:04;;;;;;;9.60;7.27;;;12.50;99.90;;;;;;5107322;28;20204;-66
2023/10/24 08:42:33;;;;;;;8.80;8.00;;;12.50;99.90;;;;;;5106989;28;20693;-67
2023/10/24 08:45:01;;;;;;;9.50;7.47;;;12.50;99.90;;;;;;5087678;28;20243;-66
2023/10/24 08:47:30;;;;;;;8.63;7.73;;;12.60;99.90;;;;;;5086441;28;20578;-66
2023/10/24 08:49:58;;;;;;;7.97;7.17;;;12.60;99.90;;;;;;5086602;28;20301;-66
2023/10/24 08:52:25;;;;;;;8.27;7.37;;;12.60;99.90;;;;;;5086418;28;20203;-66
2023/10/24 08:54:52;;;;;;;8.20;7.33;;;12.60;99.90;;;;;;5086326;28;20643;-66
2023/10/24 08:57:25;;;;;;;8.40;7.53;;;12.60;99.90;;;;;;5086455;28;20225;-66
2023/10/24 08:59:53;;;;;;;8.47;7.60;;;12.60;99.90;;;;;;5086667;28;20226;-66
2023/10/24 09:02:21;;;;;;;9.17;7.37;;;12.70;99.90;;;;;;5086474;28;20285;-66
2023/10/24 09:04:50;;;;;;;11.30;7.47;;;12.70;99.90;;;;;;5086200;28;20299;-66
2023/10/24 09:07:17;;;;;;;9.17;7.80;;;12.70;99.90;;;;;;5085919;28;20206;-66
2023/10/24 09:09:44;;;;;;;7.87;6.90;;;12.80;99.90;;;;;;5086424;28;20202;-66
2023/10/24 09:12:14;;;;;;;8.60;7.70;;;12.80;99.90;;;;;;5096585;28;20293;-66
2023/10/24 09:14:45;;;;;;;7.57;6.77;;;12.80;99.90;;;;;;5106537;28;20739;-66
2023/10/24 09:17:15;;;;;;;8.60;6.90;;;12.80;99.90;;;;;;5106605;28;20190;-66
2023/10/24 09:19:42;;;;;;;7.60;6.80;;;12.90;99.90;;;;;;5106363;28;20216;-66
2023/10/24 09:22:15;;;;;;;7.80;7.10;;;12.90;99.90;;;;;;5106441;28;20289;-66
2023/10/24 09:24:45;;;;;;;9.07;6.93;;;13.00;99.90;;;;;;5106188;28;20342;-66
2023/10/24 09:27:13;;;;;;;8.47;7.47;;;12.90;99.90;;;;;;5091547;28;20826;-66
2023/10/24 09:29:41;;;;;;;9.87;7.00;;;13.00;99.90;;;;;;5085756;28;20289;-66
2023/10/24 09:32:13;;;;;;;7.87;7.03;;;13.00;99.90;;;;;;5106065;28;20210;-67
2023/10/24 09:34:42;;;;;;;7.40;6.77;;;13.00;99.90;;;;;;5106214;28;20198;-66
2023/10/24 09:37:10;;;;;;;8.03;7.03;;;13.00;99.90;;;;;;5106133;28;20340;-66
2023/10/24 09:39:54;;;;;;;10.33;7.10;;;13.00;99.90;;;;;;5105952;28;20729;-66
2023/10/24 09:42:25;;;;;;;9.30;7.43;;;13.00;99.90;;;;;;5106127;28;20194;-66
2023/10/24 09:44:53;;;;;;;9.47;7.20;;;13.00;99.90;;;;;;5105225;28;20241;-66
2023/10/24 09:47:21;;;;;;;9.57;7.40;;;13.10;99.90;;;;;;5106031;28;20206;-66
2023/10/24 09:49:50;;;;;;;7.83;6.97;;;13.10;99.90;;;;;;5105799;28;20201;-67
2023/10/24 09:52:20;;;;;;;8.57;6.63;;;13.10;99.90;;;;;;5105944;28;20601;-64
2023/10/24 09:54:49;;;;;;;7.70;6.80;;;13.10;99.90;;;;;;5105938;28;20213;-67
2023/10/24 09:57:19;;;;;;;8.50;7.20;;;13.10;99.90;;;;;;5105756;28;20671;-67
2023/10/24 09:59:47;;;;;;;9.60;7.63;;;13.10;99.90;;;;;;5105595;28;20518;-65
2023/10/24 10:02:14;;;;;;;9.20;6.90;;;13.10;99.90;;;;;;5105488;28;20214;-67
2023/10/24 10:04:41;;;;;;;8.43;7.00;;;13.10;99.90;;;;;;5105302;28;20230;-67
2023/10/24 10:07:11;;;;;;;8.20;6.33;;;13.20;99.90;;;;;;5105919;28;20212;-65
2023/10/24 10:09:42;;;;;;;8.37;7.10;;;13.20;99.90;;;;;;5088889;28;20206;-65
2023/10/24 10:12:12;;;;;;;9.63;6.90;;;13.10;99.90;;;;;;5105898;28;20293;-65
2023/10/24 10:14:50;;;;;;;7.80;7.00;;;13.20;99.90;;;;;;5094275;28;20210;-65
2023/10/24 10:17:24;;;;;;;7.80;7.00;;;13.20;99.90;;;;;;5084598;28;20253;-65
2023/10/24 10:20:11;;;;;;;10.47;7.23;;;13.20;99.90;;;;;;5101685;28;20285;-65
2023/10/24 10:22:49;;;;;;;8.20;7.20;;;13.20;99.90;;;;;;5105196;28;20312;-65
2023/10/24 10:25:40;;;;;;;10.63;7.53;;;13.20;99.90;;;;;;5105103;28;20344;-65
2023/10/24 10:28:21;;;;;;;8.60;6.80;;;13.20;99.90;;;;;;5105362;28;20234;-65
2023/10/24 10:30:58;;;;;;;12.70;6.80;;;13.10;99.90;;;;;;5105262;28;20736;-65
2023/10/24 10:33:26;;;;;;;7.90;6.93;;;13.20;99.90;;;;;;5104906;28;20532;-66
2023/10/24 10:35:56;;;;;;;9.53;7.07;;;13.20;99.90;;;;;;5105093;28;20324;-66
2023/10/24 10:38:36;;;;;;;7.93;6.63;;;13.20;99.90;;;;;;5104883;28;20211;-67
2023/10/24 10:41:44;;;;;;;8.27;6.77;;;13.20;99.90;;;;;;5105158;28;20466;-67
2023/10/24 10:44:44;;;;;;;9.27;7.07;;;13.20;99.90;;;;;;5090168;28;20233;-67
2023/10/24 10:47:14;;;;;;;9.10;6.77;;;13.20;99.90;;;;;;5104804;28;20296;-67
2023/10/24 10:49:48;;;;;;;11.17;6.70;;;13.30;99.90;;;;;;5105048;28;20557;-67
2023/10/24 10:52:42;;;;;;;7.80;7.00;;;13.30;99.90;;;;;;5104981;28;20193;-66
2023/10/24 10:55:45;;;;;;;7.43;6.37;;;13.20;99.90;;;;;;5099130;28;20206;-66
2023/10/24 10:58:23;;;;;;;6.83;6.23;;;13.30;99.90;;;;;;5109465;28;20300;-67
2023/10/24 11:01:03;;;;;;;8.77;7.23;;;13.30;99.90;;;;;;5109500;28;20198;-67
2023/10/24 11:03:49;;;;;;;9.50;6.53;;;13.40;99.90;;;;;;5108578;28;20198;-67
2023/10/24 11:06:16;;;;;;;7.57;6.80;;;13.40;99.90;;;;;;5088521;28;20692;-67
2023/10/24 11:09:04;;;;;;;11.23;6.80;;;13.40;99.90;;;;;;5088789;28;20268;-67
2023/10/24 11:11:32;;;;;;;8.53;7.40;;;13.40;99.90;;;;;;5102228;28;20210;-67
2023/10/24 11:14:14;;;;;;;8.00;7.03;;;13.50;99.90;;;;;;5088545;28;20214;-66
2023/10/24 11:16:44;;;;;;;12.07;7.03;;;13.50;99.90;;;;;;5088633;28;20660;-66
2023/10/24 11:19:18;;;;;;;7.23;6.50;;;13.50;99.90;;;;;;5088402;28;20281;-66
2023/10/24 11:21:46;;;;;;;7.40;6.70;;;13.60;99.90;;;;;;5088628;28;20203;-66
2023/10/24 11:24:17;;;;;;;11.20;7.07;;;13.60;99.90;;;;;;5105541;28;20230;-66
2023/10/24 11:26:44;;;;;;;7.37;6.67;;;13.60;99.90;;;;;;5108657;28;20226;-66
2023/10/24 11:29:13;;;;;;;9.00;6.77;;;13.70;99.90;;;;;;5108681;28;20686;-66
2023/10/24 11:31:40;;;;;;;8.90;7.20;;;13.70;99.90;;;;;;5108721;28;20202;-66
2023/10/24 11:34:08;;;;;;;10.97;7.00;;;13.70;99.90;;;;;;5108584;28;20297;-66
2023/10/24 11:36:35;;;;;;;11.73;7.17;;;13.70;99.90;;;;;;5108065;28;20277;-66
2023/10/24 11:39:04;;;;;;;9.33;6.47;;;13.70;99.90;;;;;;5108360;28;20293;-66
2023/10/24 11:41:31;;;;;;;8.57;6.37;;;13.70;99.90;;;;;;5108547;28;20209;-66
2023/10/24 11:43:58;;;;;;;9.20;6.73;;;13.70;99.90;;;;;;5108338;28;20249;-66
2023/10/24 11:46:25;;;;;;;7.57;6.67;;;13.70;99.90;;;;;;5108590;28;20216;-65
2023/10/24 11:48:52;;;;;;;6.97;6.43;;;13.70;99.90;;;;;;5108132;27;20206;-66
2023/10/24 11:51:20;;;;;;;11.13;6.90;;;13.70;99.90;;;;;;5108214;28;20678;-66
2023/10/24 11:53:47;;;;;;;8.80;6.97;;;13.70;99.90;;;;;;5108552;28;20285;-66
2023/10/24 11:56:15;;;;;;;7.77;7.00;;;13.70;99.90;;;;;;5108009;28;20213;-66
2023/10/24 11:58:43;;;;;;;7.80;6.70;;;13.70;99.90;;;;;;5108130;28;20195;-66
2023/10/24 12:01:11;;;;;;;8.13;6.90;;;13.70;99.90;;;;;;5108136;28;20214;-66
2023/10/24 12:03:45;;;;;;;6.90;6.23;;;13.60;99.90;;;;;;5107822;28;20225;-66
2023/10/24 12:06:12;;;;;;;7.10;6.40;;;13.60;99.90;;;;;;5104700;28;20306;-65
2023/10/24 12:08:44;;;;;;;7.33;6.63;;;13.60;99.90;;;;;;5086248;28;20221;-66
2023/10/24 12:11:11;;;;;;;8.03;6.90;;;13.50;99.90;;;;;;5093941;28;20194;-66
2023/10/24 12:13:38;;;;;;;7.60;6.80;;;13.50;99.90;;;;;;5107557;28;20209;-66
2023/10/24 12:16:05;;;;;;;7.73;6.80;;;13.50;99.90;;;;;;5107649;27;20313;-66
2023/10/24 12:18:32;;;;;;;7.00;6.23;;;13.40;99.90;;;;;;5106703;28;20292;-66
2023/10/24 12:20:59;;;;;;;9.83;6.40;;;13.40;99.90;;;;;;5087353;28;20298;-66
2023/10/24 12:23:26;;;;;;;7.33;6.63;;;13.40;99.90;;;;;;5087168;28;20206;-66
2023/10/24 12:25:55;;;;;;;10.83;6.23;;;13.40;99.90;;;;;;5086883;28;20233;-66
2023/10/24 12:28:21;;;;;;;7.13;6.40;;;13.40;99.90;;;;;;5087357;28;20207;-66
2023/10/24 12:30:48;;;;;;;10.00;6.43;;;13.40;99.90;;;;;;5087112;28;20293;-66
2023/10/24 12:33:15;;;;;;;7.37;6.63;;;13.40;99.90;;;;;;5086996;28;20302;-66
2023/10/24 12:35:42;;;;;;;9.37;6.70;;;13.30;99.90;;;;;;5087072;28;20268;-66
2023/10/24 12:38:09;;;;;;;7.90;7.03;;;13.40;99.90;;;;;;5087183;28;20297;-66
2023/10/24 12:40:37;;;;;;;7.23;6.30;;;13.40;99.90;;;;;;5086788;28;20299;-66
2023/10/24 12:43:06;;;;;;;8.17;6.30;;;13.30;99.90;;;;;;5089979;28;20206;-66
2023/10/24 12:45:33;;;;;;;6.90;6.40;;;13.30;99.90;;;;;;5106779;28;20237;-66
2023/10/24 12:48:01;;;;;;;8.67;6.80;;;13.30;99.90;;;;;;5107113;28;20281;-65
2023/10/24 12:50:28;;;;;;;9.10;7.13;;;13.30;99.90;;;;;;5107084;28;20202;-66
2023/10/24 12:52:55;;;;;;;7.83;7.00;;;13.30;99.90;;;;;;5107175;28;20206;-66